Time;durP1;ratioP1;P1;durP2;ratioP2;P2;SDS_P1;SDS_P2;PMS_P1;PMS_P2;Temp;Humidity;BMP_temperature;BMP_pressure;BME280_temperature;BME280_humidity;BME280_pressure;Samples;Min_cycle;Max_cycle;Signal;HPM_P1;HPM_P2
2022/10/13 00:00:49;423220.00;1.41;729.73;3998.00;0.01;7.55;;;;;14.60;6.00;;;;;;2272445;61;1998;-86
2022/10/13 00:03:17;571689.00;1.91;985.36;28450.00;0.09;49.90;;;;;14.50;6.50;;;;;;2272288;61;1207;-84
2022/10/13 00:05:47;500913.00;1.67;863.40;11902.00;0.04;21.24;;;;;14.40;7.20;;;;;;2272503;61;1300;-86
2022/10/13 00:08:17;637539.00;2.13;1099.08;17521.00;0.06;30.98;;;;;14.40;6.50;;;;;;2272301;61;1586;-85
2022/10/13 00:10:45;313698.00;1.05;541.47;0.00;0.00;0.62;;;;;14.40;7.00;;;;;;2272238;61;1758;-89
2022/10/13 00:13:12;678435.00;2.26;1169.86;0.00;0.00;0.62;;;;;14.40;6.50;;;;;;2272420;61;1098;-86
2022/10/13 00:15:40;696130.00;2.32;1200.53;0.00;0.00;0.62;;;;;14.40;7.50;;;;;;2272425;61;1380;-89
2022/10/13 00:18:07;887884.00;2.96;1534.85;86825.00;0.29;150.83;;;;;14.40;6.50;;;;;;2272262;61;1425;-89
2022/10/13 00:20:34;657825.00;2.19;1134.18;88609.00;0.30;153.91;;;;;14.50;6.40;;;;;;2272333;61;1928;-86
2022/10/13 00:23:02;221122.00;0.74;382.27;0.00;0.00;0.62;;;;;14.30;7.00;;;;;;2272328;61;1517;-88
2022/10/13 00:25:29;335561.00;1.12;579.04;0.00;0.00;0.62;;;;;13.90;8.20;;;;;;2272293;61;1285;-85
2022/10/13 00:27:56;370509.00;1.24;639.11;0.00;0.00;0.62;;;;;13.70;9.10;;;;;;2272326;61;1136;-86
2022/10/13 00:30:23;277878.00;0.93;479.89;0.00;0.00;0.62;;;;;13.70;9.90;;;;;;2272348;61;1128;-85
2022/10/13 00:32:51;300572.00;1.00;518.90;41244.00;0.14;72.04;;;;;13.70;10.10;;;;;;2272395;61;949;-85
2022/10/13 00:35:18;678983.00;2.26;1170.81;68881.00;0.23;119.83;;;;;13.20;11.30;;;;;;2272356;61;1394;-85
2022/10/13 00:37:45;440284.00;1.47;759.07;0.00;0.00;0.62;;;;;12.90;13.30;;;;;;2272385;61;979;-84
2022/10/13 00:40:14;640281.00;2.13;1103.83;0.00;0.00;0.62;;;;;13.00;12.90;;;;;;2272218;61;1990;-83
2022/10/13 00:42:41;526599.00;1.76;907.63;72036.00;0.24;125.28;;;;;13.30;12.60;;;;;;2272163;61;1542;-84
2022/10/13 00:47:40;833803.00;2.78;1440.14;0.00;0.00;0.62;;;;;13.30;12.50;;;;;;2274131;61;1404;-84
2022/10/13 00:50:11;647079.00;2.16;1115.58;0.00;0.00;0.62;;;;;13.40;12.50;;;;;;2272330;61;1093;-86
2022/10/13 00:52:41;597328.00;1.99;1029.61;0.00;0.00;0.62;;;;;13.80;11.00;;;;;;2272243;61;1179;-87
2022/10/13 00:55:12;612482.00;2.04;1055.78;34590.00;0.12;60.53;;;;;14.10;10.30;;;;;;2272104;61;1493;-86
2022/10/13 00:57:46;589018.00;1.96;1015.26;62386.00;0.21;108.60;;;;;14.30;9.20;;;;;;2272141;61;1557;-84
2022/10/13 01:00:14;1022274.00;3.41;1771.96;42552.00;0.14;74.30;;;;;14.30;8.40;;;;;;2272057;61;2018;-86
2022/10/13 01:02:41;1042629.00;3.48;1808.12;136145.00;0.45;235.92;;;;;14.40;8.90;;;;;;2272029;61;1520;-87
2022/10/13 01:05:09;993494.00;3.31;1720.95;76366.00;0.25;132.76;;;;;14.40;8.60;;;;;;2272031;61;1577;-86
2022/10/13 01:07:36;761389.00;2.54;1313.87;31334.00;0.10;54.89;;;;;14.30;9.50;;;;;;2272123;61;1554;-84
2022/10/13 01:10:05;1109971.00;3.70;1928.26;64355.00;0.21;112.00;;;;;14.30;9.90;;;;;;2271973;61;1964;-87
2022/10/13 01:12:48;1155762.00;3.85;2010.44;107918.00;0.36;187.24;;;;;14.20;9.40;;;;;;2272116;61;1199;-87
2022/10/13 01:15:26;920482.00;3.07;1592.12;65531.00;0.22;114.04;;;;;14.20;10.50;;;;;;2272044;61;1407;-87
2022/10/13 01:18:04;891012.00;2.97;1540.34;105644.00;0.35;183.31;;;;;14.40;8.90;;;;;;2272168;61;1776;-85
2022/10/13 01:21:00;887890.00;2.96;1534.86;95832.00;0.32;166.38;;;;;14.40;8.80;;;;;;2272046;61;2022;-85
2022/10/13 01:23:56;679835.00;2.27;1172.29;11064.00;0.04;19.79;;;;;14.40;8.90;;;;;;2268322;61;1755;-86
2022/10/13 01:26:58;704632.00;2.35;1215.27;15172.00;0.05;26.91;;;;;14.40;8.70;;;;;;2268635;61;1639;-87
2022/10/13 01:30:04;583124.00;1.94;1005.09;40193.00;0.13;70.22;;;;;14.30;9.10;;;;;;2268858;61;1203;-86
2022/10/13 01:32:51;1082598.00;3.61;1879.33;96306.00;0.32;167.20;;;;;14.60;9.50;;;;;;2268709;61;1244;-85
2022/10/13 01:35:27;822723.00;2.74;1420.78;70425.00;0.23;122.49;;;;;14.70;8.00;;;;;;2268590;61;1346;-86
2022/10/13 01:38:02;678922.00;2.26;1170.71;67398.00;0.22;117.26;;;;;14.80;7.60;;;;;;2276539;40;3609;-84
2022/10/13 01:45:41;1834707.00;6.12;3290.26;0.00;0.00;0.62;;;;;14.70;6.60;;;;;;2278178;61;1424;-87
2022/10/13 01:48:11;753523.00;2.51;1300.18;51858.00;0.17;90.40;;;;;14.70;7.10;;;;;;2276850;61;1592;-88
2022/10/13 01:50:39;627754.00;2.09;1082.17;57842.00;0.19;100.75;;;;;14.70;6.60;;;;;;2276757;61;1567;-86
2022/10/13 01:55:34;2195746.00;7.32;4034.31;71215.00;0.24;123.86;;;;;14.40;7.60;;;;;;2300069;40;3576;-86
2022/10/13 01:58:03;589884.00;1.97;1016.76;93906.00;0.31;163.05;;;;;14.40;7.80;;;;;;2276786;61;1569;-84
2022/10/13 02:03:13;1467093.00;4.89;2581.35;0.00;0.00;0.62;;;;;14.90;6.90;;;;;;2274199;61;1462;-87
2022/10/13 02:05:49;488863.00;1.63;842.65;0.00;0.00;0.62;;;;;14.80;6.70;;;;;;2272677;61;1491;-86
2022/10/13 02:08:24;654419.00;2.18;1128.28;0.00;0.00;0.62;;;;;14.80;7.10;;;;;;2272689;61;1147;-89
2022/10/13 02:10:58;346229.00;1.15;597.38;0.00;0.00;0.62;;;;;14.80;7.40;;;;;;2272760;61;1490;-86
2022/10/13 02:18:38;1394274.00;4.65;2445.71;1496.00;0.00;3.21;;;;;15.30;7.00;;;;;;2270404;61;1183;-86
2022/10/13 02:21:07;462598.00;1.54;797.45;95896.00;0.32;166.49;;;;;15.40;6.90;;;;;;2268502;61;2010;-87
2022/10/13 02:23:34;669537.00;2.23;1154.45;80862.00;0.27;140.53;;;;;15.50;7.10;;;;;;2268446;61;1473;-86
2022/10/13 02:26:02;542888.00;1.81;935.70;71139.00;0.24;123.73;;;;;15.60;6.50;;;;;;2268614;61;1491;-87
2022/10/13 02:28:30;519650.00;1.73;895.66;50918.00;0.17;88.77;;;;;15.60;6.80;;;;;;2268490;61;1551;-85
2022/10/13 02:30:59;663408.00;2.21;1143.84;105038.00;0.35;182.27;;;;;15.70;6.40;;;;;;2268565;61;1101;-86
2022/10/13 02:33:27;636884.00;2.12;1097.95;0.00;0.00;0.62;;;;;15.80;5.90;;;;;;2268434;61;1755;-87
2022/10/13 02:35:54;710757.00;2.37;1225.90;0.00;0.00;0.62;;;;;15.70;6.30;;;;;;2268578;61;1117;-87
2022/10/13 02:38:24;649333.00;2.16;1119.48;0.00;0.00;0.62;;;;;15.70;6.00;;;;;;2268488;61;1638;-86
2022/10/13 02:40:51;1111695.00;3.71;1931.35;75681.00;0.25;131.58;;;;;15.60;6.20;;;;;;2268391;61;2016;-88
2022/10/13 02:43:18;763025.00;2.54;1316.71;37285.00;0.12;65.19;;;;;15.60;6.30;;;;;;2268475;61;1698;-89
2022/10/13 02:45:45;1004407.00;3.35;1740.28;105372.00;0.35;182.84;;;;;15.50;6.40;;;;;;2268488;61;1583;-88
2022/10/13 02:48:12;639545.00;2.13;1102.55;25068.00;0.08;44.05;;;;;15.40;5.90;;;;;;2281438;55;3766;-88
2022/10/13 02:53:14;818724.00;2.73;1413.80;5483.00;0.02;10.12;;;;;15.20;6.60;;;;;;1894626;59;2425;-88
2022/10/13 02:55:43;798407.00;2.66;1378.35;58288.00;0.19;101.52;;;;;15.30;6.40;;;;;;2272548;61;1360;-87
2022/10/13 02:58:10;841083.00;2.80;1452.87;79303.00;0.26;137.83;;;;;15.30;6.60;;;;;;2272387;61;1561;-86
2022/10/13 03:00:38;1062026.00;3.54;1842.64;87509.00;0.29;152.01;;;;;15.30;6.60;;;;;;2272500;61;1927;-85
2022/10/13 03:03:05;789772.00;2.63;1363.29;76381.00;0.25;132.79;;;;;15.30;6.80;;;;;;2272451;61;1696;-87
2022/10/13 03:05:32;1101834.00;3.67;1913.70;84935.00;0.28;147.56;;;;;15.20;6.70;;;;;;2280880;40;3656;-87
2022/10/13 03:07:59;557248.00;1.86;960.46;27238.00;0.09;47.80;;;;;15.10;6.80;;;;;;2276657;61;1550;-86
2022/10/13 03:10:27;879251.00;2.93;1519.71;89715.00;0.30;155.82;;;;;15.20;6.70;;;;;;2277591;55;3739;-84
2022/10/13 03:12:56;482971.00;1.61;832.51;1506.00;0.01;3.23;;;;;15.20;7.00;;;;;;2276509;61;1695;-85
2022/10/13 03:15:24;1086615.00;3.62;1886.50;167651.00;0.56;290.22;;;;;15.30;6.40;;;;;;2276431;61;1582;-88
2022/10/13 03:17:51;994484.00;3.31;1722.70;60703.00;0.20;105.69;;;;;15.40;6.40;;;;;;2276497;61;1218;-85
2022/10/13 03:20:19;1039288.00;3.46;1802.18;110359.00;0.37;191.45;;;;;15.30;6.70;;;;;;2276463;61;1998;-85
2022/10/13 03:25:19;1551774.00;5.17;2740.93;0.00;0.00;0.62;;;;;15.30;6.80;;;;;;2265970;61;1415;-89
2022/10/13 03:27:47;666075.00;2.22;1148.46;39851.00;0.13;69.63;;;;;15.50;7.10;;;;;;2264254;61;1306;-86
2022/10/13 03:30:16;532842.00;1.78;918.39;56532.00;0.19;98.48;;;;;15.40;6.50;;;;;;2264451;61;1411;-86
2022/10/13 03:32:43;782464.00;2.61;1350.56;155744.00;0.52;269.71;;;;;15.50;6.40;;;;;;2264440;61;1109;-88
2022/10/13 03:35:12;451568.00;1.51;778.48;68221.00;0.23;118.69;;;;;15.40;7.00;;;;;;2264225;61;1625;-87
2022/10/13 03:37:39;497273.00;1.66;857.13;127681.00;0.43;221.33;;;;;15.40;6.60;;;;;;2264231;61;1795;-83
2022/10/13 03:40:11;420809.00;1.40;725.58;25871.00;0.09;45.44;;;;;15.40;6.20;;;;;;2264227;61;1923;-85
2022/10/13 03:42:39;579241.00;1.93;998.39;19793.00;0.07;34.91;;;;;15.40;6.80;;;;;;2264392;61;1221;-87
2022/10/13 03:45:09;1085566.00;3.62;1884.63;108922.00;0.36;188.97;;;;;15.60;5.80;;;;;;2264149;61;1579;-86
2022/10/13 03:47:38;616184.00;2.05;1062.17;46296.00;0.15;80.78;;;;;15.50;6.00;;;;;;2264235;61;1689;-83
2022/10/13 03:50:06;913683.00;3.05;1580.16;225241.00;0.75;389.36;;;;;15.60;6.20;;;;;;2264380;61;1063;-85
2022/10/13 03:52:33;483581.00;1.61;833.56;0.00;0.00;0.62;;;;;15.60;5.90;;;;;;2264285;61;2236;-87
2022/10/13 03:55:00;471505.00;1.57;812.78;14525.00;0.05;25.79;;;;;15.80;6.10;;;;;;2264233;61;1316;-87
2022/10/13 03:57:27;626557.00;2.09;1080.10;87934.00;0.29;152.74;;;;;15.60;5.80;;;;;;2263953;61;1036;-85
2022/10/13 03:59:55;865770.00;2.89;1496.08;44995.00;0.15;78.53;;;;;15.70;6.40;;;;;;2293906;41;3788;-89
2022/10/13 04:02:22;298207.00;0.99;514.84;0.00;0.00;0.62;;;;;15.60;5.40;;;;;;2276372;61;2022;-86
2022/10/13 04:04:55;829618.00;2.77;1432.83;72162.00;0.24;125.50;;;;;15.50;5.90;;;;;;2276304;61;1517;-87
2022/10/13 04:07:22;572991.00;1.91;987.61;76744.00;0.26;133.41;;;;;15.20;6.60;;;;;;2276544;61;1401;-87
2022/10/13 04:09:49;667971.00;2.23;1151.74;243224.00;0.81;420.30;;;;;15.10;6.60;;;;;;2276506;61;1493;-86
2022/10/13 04:12:16;727280.00;2.42;1254.58;0.00;0.00;0.62;;;;;14.80;7.00;;;;;;2276323;61;1527;-85
2022/10/13 04:14:45;828292.00;2.76;1430.51;482.00;0.00;1.46;;;;;14.70;7.40;;;;;;2276373;61;1283;-89
2022/10/13 04:17:12;663294.00;2.21;1143.64;127468.00;0.42;220.96;;;;;14.80;6.70;;;;;;2276282;61;1605;-85
2022/10/13 04:19:39;510101.00;1.70;879.22;0.00;0.00;0.62;;;;;15.00;6.70;;;;;;2276404;61;1582;-84
2022/10/13 04:22:08;763056.00;2.54;1316.77;53184.00;0.18;92.69;;;;;14.90;6.80;;;;;;2276299;61;2001;-87
2022/10/13 04:24:36;674184.00;2.25;1162.50;44243.00;0.15;77.23;;;;;14.80;7.40;;;;;;2276360;61;1355;-86
2022/10/13 04:27:03;500461.00;1.67;862.62;0.00;0.00;0.62;;;;;14.60;7.40;;;;;;2276284;61;1065;-85
2022/10/13 04:29:30;745018.00;2.48;1285.40;141461.00;0.47;245.09;;;;;14.60;7.40;;;;;;2276374;61;1586;-88
2022/10/13 04:31:59;941268.00;3.14;1628.72;90955.00;0.30;157.96;;;;;14.50;7.50;;;;;;2276355;61;1014;-87
2022/10/13 04:34:26;690421.00;2.30;1190.63;40324.00;0.13;70.45;;;;;14.40;7.80;;;;;;2276138;61;1548;-88
2022/10/13 04:36:54;391584.00;1.31;675.34;0.00;0.00;0.62;;;;;14.50;7.50;;;;;;2276304;61;1445;-88
2022/10/13 04:39:23;556166.00;1.85;958.59;80427.00;0.27;139.77;;;;;14.40;7.70;;;;;;2276314;61;1498;-86
2022/10/13 04:41:50;540358.00;1.80;931.34;0.00;0.00;0.62;;;;;14.30;7.70;;;;;;2276333;61;1915;-85
2022/10/13 04:44:17;458859.00;1.53;791.02;0.00;0.00;0.62;;;;;14.40;7.00;;;;;;2276252;61;1603;-84
2022/10/13 04:46:44;359055.00;1.20;619.42;0.00;0.00;0.62;;;;;14.20;8.40;;;;;;2276327;61;1714;-86
2022/10/13 04:49:11;252327.00;0.84;435.95;0.00;0.00;0.62;;;;;14.20;8.00;;;;;;2276367;61;1038;-87
2022/10/13 04:51:38;354890.00;1.18;612.27;0.00;0.00;0.62;;;;;14.30;7.60;;;;;;2276288;61;1573;-88
2022/10/13 04:54:05;613285.00;2.04;1057.16;13389.00;0.04;23.82;;;;;14.20;7.60;;;;;;2276294;61;1358;-86
2022/10/13 04:56:34;482776.00;1.61;832.18;0.00;0.00;0.62;;;;;14.10;7.60;;;;;;2276317;61;1554;-85
2022/10/13 04:59:01;639814.00;2.13;1103.02;61252.00;0.20;106.64;;;;;13.90;7.60;;;;;;2276210;61;1165;-86
2022/10/13 05:01:28;264626.00;0.88;457.10;64058.00;0.21;111.49;;;;;13.70;7.50;;;;;;2276249;61;2014;-86
2022/10/13 05:03:58;722727.00;2.41;1246.67;0.00;0.00;0.62;;;;;13.80;8.10;;;;;;2276265;61;1300;-87
2022/10/13 05:06:27;1032768.00;3.44;1790.59;181819.00;0.61;314.62;;;;;14.10;9.70;;;;;;2276329;61;1027;-85
2022/10/13 05:08:54;945241.00;3.15;1635.72;100298.00;0.33;174.09;;;;;14.60;11.20;;;;;;2276192;61;1114;-86
2022/10/13 05:11:23;303197.00;1.01;523.42;3098.00;0.01;5.99;;;;;15.10;9.20;;;;;;2276301;61;1371;-87
2022/10/13 05:13:51;240192.00;0.80;415.08;0.00;0.00;0.62;;;;;15.10;6.90;;;;;;2276220;61;1614;-87
2022/10/13 05:16:20;674652.00;2.25;1163.31;237.00;0.00;1.03;;;;;14.90;8.10;;;;;;2276057;61;1396;-88
2022/10/13 05:18:47;476000.00;1.59;820.51;61319.00;0.20;106.76;;;;;14.80;7.60;;;;;;2276270;61;1446;-87
2022/10/13 05:21:16;459703.00;1.53;792.47;0.00;0.00;0.62;;;;;14.80;8.40;;;;;;2276166;61;2014;-88
2022/10/13 05:23:44;402902.00;1.34;694.79;40885.00;0.14;71.42;;;;;15.00;8.40;;;;;;2276102;61;1474;-87
2022/10/13 05:26:13;566905.00;1.89;977.11;0.00;0.00;0.62;;;;;15.30;8.80;;;;;;2276120;61;1093;-88
2022/10/13 05:28:40;960289.00;3.20;1662.26;227955.00;0.76;394.03;;;;;15.90;9.50;;;;;;2276071;61;1729;-85
2022/10/13 05:31:15;531751.00;1.77;916.51;0.00;0.00;0.62;;;;;16.30;9.10;;;;;;2276033;61;1078;-85
2022/10/13 05:33:43;902481.00;3.01;1560.48;117984.00;0.39;204.60;;;;;16.70;8.60;;;;;;2276001;61;1457;-86
2022/10/13 05:36:12;798116.00;2.66;1377.84;70269.00;0.23;122.23;;;;;16.90;7.80;;;;;;2276113;61;1796;-87
2022/10/13 05:38:40;942265.00;3.14;1630.48;124133.00;0.41;215.21;;;;;17.10;7.20;;;;;;2275830;61;1765;-87
2022/10/13 05:43:43;813820.00;2.71;1405.24;62261.00;0.21;108.39;;;;;16.10;2.10;;;;;;2278257;56;1575;-85
2022/10/13 05:46:12;715417.00;2.38;1233.98;127282.00;0.42;220.64;;;;;15.60;5.50;;;;;;2276988;55;3709;-86
2022/10/13 05:53:44;123085776.00;410.29;75545496.00;80761.00;0.27;140.35;;;;;16.30;6.70;;;;;;2294286;40;3493;-90
2022/10/13 05:56:16;919423.00;3.06;1590.26;126285.00;0.42;218.92;;;;;16.70;6.00;;;;;;2275811;61;1719;-86
2022/10/13 06:01:22;124587432.00;415.29;78347048.00;55724.00;0.19;97.08;;;;;17.10;6.50;;;;;;2277623;61;1961;-87
2022/10/13 06:03:51;1222111.00;4.07;2130.25;171934.00;0.57;297.60;;;;;17.20;3.60;;;;;;2275983;61;1580;-86
2022/10/13 06:08:46;1978626.00;6.60;3580.53;75836.00;0.25;131.84;;;;;17.10;5.60;;;;;;2269681;61;1409;-89
2022/10/13 06:13:48;1253441.00;4.18;2187.15;0.00;0.00;0.62;;;;;17.30;4.60;;;;;;2016588;59;2895;-91
2022/10/13 06:16:17;117765696.00;392.55;66158944.00;59153.00;0.20;103.01;;;;;17.50;4.30;;;;;;2293741;55;3752;-86
2022/10/13 06:18:44;1070595.00;3.57;1857.92;17858.00;0.06;31.56;;;;;17.30;1.70;;;;;;2310169;55;3785;-86
2022/10/13 06:24:02;2000275.00;6.67;3624.89;56421.00;0.19;98.29;;;;;17.20;2.60;;;;;;2312540;40;3681;31
2022/10/13 06:34:02;1342596.00;4.48;2350.28;15071.00;0.05;26.73;;;;;17.10;4.00;;;;;;2274278;61;1392;-83
2022/10/13 06:36:29;461214.00;1.54;795.07;28093.00;0.09;49.28;;;;;17.10;4.00;;;;;;2272499;61;1259;-84
2022/10/13 06:38:56;515349.00;1.72;888.25;2007.00;0.01;4.10;;;;;17.20;4.10;;;;;;2283283;41;3636;-85
2022/10/13 06:41:23;462872.00;1.54;797.93;442.00;0.00;1.39;;;;;17.40;4.10;;;;;;2280207;55;3743;-83
2022/10/13 06:49:00;1615601.00;5.39;2862.59;64003.00;0.21;111.40;;;;;17.80;1.30;;;;;;2275269;55;3643;-88
2022/10/13 06:56:31;2242823.00;7.48;4135.43;0.00;0.00;0.62;;;;;17.60;1.90;;;;;;2293025;40;3573;-84
2022/10/13 06:58:58;351437.00;1.17;606.33;45722.00;0.15;79.79;;;;;17.40;2.10;;;;;;2276463;61;1693;-84
2022/10/13 07:01:25;504119.00;1.68;868.92;67740.00;0.23;117.85;;;;;17.40;1.90;;;;;;2280169;55;3781;-82
2022/10/13 07:29:14;1834383.00;6.11;3289.62;4081.00;0.01;7.69;;;;;18.50;1.80;;;;;;2307770;40;3514;-85
2022/10/13 07:34:15;2335434.00;7.78;4337.37;0.00;0.00;0.62;;;;;18.70;1.30;;;;;;2272215;61;1502;-87
2022/10/13 07:49:22;2324926.00;7.75;4314.25;67653.00;0.23;117.70;;;;;18.50;1.40;;;;;;2277516;55;3554;-88
2022/10/13 07:54:18;120925568.00;403.09;71633792.00;88213.00;0.29;153.22;;;;;18.50;1.40;;;;;;2270554;61;1345;-87
2022/10/13 07:59:37;915805.00;3.05;1583.90;0.00;0.00;0.62;;;;;19.00;1.20;;;;;;2279265;61;1398;-90
2022/10/13 08:07:07;1300071.00;4.33;2272.24;9498.00;0.03;17.08;;;;;19.00;1.00;;;;;;2274003;61;1408;-88
2022/10/13 08:09:35;576457.00;1.92;993.59;0.00;0.00;0.62;;;;;18.80;1.00;;;;;;2368156;40;3763;-84
2022/10/13 08:12:02;430978.00;1.44;743.07;0.00;0.00;0.62;;;;;18.90;1.00;;;;;;2275480;61;1545;-86
2022/10/13 08:14:29;551563.00;1.84;950.65;0.00;0.00;0.62;;;;;18.90;1.00;;;;;;2274888;61;1536;-86
2022/10/13 08:16:57;962528.00;3.21;1666.21;98660.00;0.33;171.26;;;;;18.80;1.00;;;;;;2275733;61;1487;-87
2022/10/13 08:19:25;497432.00;1.66;857.40;0.00;0.00;0.62;;;;;19.20;1.00;;;;;;2275452;61;1712;-87
2022/10/13 08:29:29;1038380.00;3.46;1800.57;15473.00;0.05;27.43;;;;;19.70;1.00;;;;;;2283631;40;3527;-86
2022/10/13 08:34:25;672616.00;2.24;1159.78;47812.00;0.16;83.40;;;;;19.60;1.20;;;;;;2269811;61;2080;-85
2022/10/13 08:36:55;287964.00;0.96;497.23;0.00;0.00;0.62;;;;;19.70;1.00;;;;;;2268206;61;1559;-87
2022/10/13 08:39:23;88699.00;0.30;154.06;0.00;0.00;0.62;;;;;20.00;1.00;;;;;;2268298;61;1621;-85
2022/10/13 08:41:55;374428.00;1.25;645.85;99100.00;0.33;172.02;;;;;20.00;1.00;;;;;;2268184;61;2006;-85
2022/10/13 08:44:26;38821.00;0.13;67.85;0.00;0.00;0.62;;;;;19.90;1.00;;;;;;2268263;61;1623;-87
2022/10/13 08:47:18;629740.00;2.10;1085.60;151911.00;0.51;263.10;;;;;20.00;1.00;;;;;;2268303;61;1269;-85
2022/10/13 08:49:45;245417.00;0.82;424.07;11321.00;0.04;20.24;;;;;20.10;1.00;;;;;;2268163;61;1402;-89
2022/10/13 08:52:19;482960.00;1.61;832.49;0.00;0.00;0.62;;;;;20.30;1.00;;;;;;2330070;41;3773;-83
2022/10/13 08:54:47;283601.00;0.95;489.73;0.00;0.00;0.62;;;;;20.50;1.00;;;;;;2276254;61;1469;-86
2022/10/13 08:59:47;413689.00;1.38;713.34;0.00;0.00;0.62;;;;;20.40;1.00;;;;;;2277970;61;1355;-88
2022/10/13 09:02:23;173184.00;0.58;299.75;0.00;0.00;0.62;;;;;20.60;1.00;;;;;;2276314;61;1914;-88
2022/10/13 09:04:53;286452.00;0.95;494.63;0.00;0.00;0.62;;;;;20.70;1.00;;;;;;2276340;61;1376;-87
2022/10/13 09:07:24;149528.00;0.50;258.99;0.00;0.00;0.62;;;;;21.10;1.00;;;;;;2276333;61;1030;-89
2022/10/13 09:09:52;479334.00;1.60;826.25;122766.00;0.41;212.85;;;;;21.10;1.00;;;;;;2287913;55;3738;-88
2022/10/13 09:12:23;145018.00;0.48;251.22;0.00;0.00;0.62;;;;;21.00;1.00;;;;;;2276958;61;1638;-88
2022/10/13 09:15:00;256381.00;0.85;442.92;0.00;0.00;0.62;;;;;20.90;1.00;;;;;;2276279;61;1431;-86
2022/10/13 09:17:32;259572.00;0.87;448.41;0.00;0.00;0.62;;;;;20.80;1.00;;;;;;2276246;61;1519;-85
2022/10/13 09:20:01;220285.00;0.73;380.83;0.00;0.00;0.62;;;;;20.70;1.00;;;;;;2276199;61;1641;-87
2022/10/13 09:22:32;254936.00;0.85;440.44;0.00;0.00;0.62;;;;;20.70;1.00;;;;;;2276339;61;1907;-87
2022/10/13 09:25:16;92825.00;0.31;161.19;0.00;0.00;0.62;;;;;20.80;1.00;;;;;;2276298;61;1301;-88
2022/10/13 09:27:46;447889.00;1.49;772.15;10238.00;0.03;18.36;;;;;20.80;1.00;;;;;;2276292;61;1109;-86
2022/10/13 09:30:33;471151.00;1.57;812.17;55697.00;0.19;97.04;;;;;20.80;1.00;;;;;;2276163;61;1641;-88
2022/10/13 09:33:19;227419.00;0.76;393.11;0.00;0.00;0.62;;;;;20.60;1.00;;;;;;2276324;61;1098;-88
2022/10/13 09:35:47;217119.00;0.72;375.39;0.00;0.00;0.62;;;;;20.90;1.00;;;;;;2276326;61;1536;-88
2022/10/13 09:38:18;708980.00;2.36;1222.81;81809.00;0.27;142.16;;;;;20.80;1.00;;;;;;2276263;61;1142;-85
2022/10/13 09:40:58;141181.00;0.47;244.61;0.00;0.00;0.62;;;;;20.70;1.00;;;;;;2276347;61;1600;-87
2022/10/13 09:43:30;271867.00;0.91;469.55;38961.00;0.13;68.09;;;;;20.90;1.00;;;;;;2276274;61;2013;-88
2022/10/13 09:45:58;442562.00;1.48;762.99;3098.00;0.01;5.99;;;;;21.00;1.00;;;;;;2276891;61;1556;-85
2022/10/13 09:48:29;163301.00;0.54;282.73;0.00;0.00;0.62;;;;;21.10;1.00;;;;;;2277029;61;1073;-87
2022/10/13 09:50:59;342102.00;1.14;590.29;0.00;0.00;0.62;;;;;21.00;1.00;;;;;;2276845;61;1053;-86
2022/10/13 09:53:32;329369.00;1.10;568.40;0.00;0.00;0.62;;;;;21.00;1.00;;;;;;2276948;61;1470;-88
2022/10/13 09:56:15;239123.00;0.80;413.24;0.00;0.00;0.62;;;;;21.00;1.00;;;;;;2276918;61;939;-86
2022/10/13 09:58:48;240120.00;0.80;414.96;0.00;0.00;0.62;;;;;21.00;1.00;;;;;;2276877;61;1700;-86
2022/10/13 10:01:22;306213.00;1.02;528.60;0.00;0.00;0.62;;;;;21.00;1.00;;;;;;2276701;61;1604;-85
2022/10/13 10:03:52;244500.00;0.81;422.49;0.00;0.00;0.62;;;;;20.90;1.00;;;;;;2276854;61;1927;-87
2022/10/13 10:06:20;465449.00;1.55;802.36;15001.00;0.05;26.61;;;;;21.10;1.00;;;;;;2276662;61;1594;-85
2022/10/13 10:08:55;452152.00;1.51;779.48;167299.00;0.56;289.61;;;;;20.90;1.00;;;;;;2276882;61;1005;-87
2022/10/13 10:11:28;506453.00;1.69;872.93;12620.00;0.04;22.49;;;;;21.20;1.00;;;;;;2276868;61;1021;-87
2022/10/13 10:13:55;504782.00;1.68;870.06;10621.00;0.04;19.03;;;;;21.30;1.00;;;;;;2276804;61;1602;-87
2022/10/13 10:16:31;376659.00;1.26;649.68;35416.00;0.12;61.96;;;;;21.40;1.00;;;;;;2276820;61;1151;-87
2022/10/13 10:19:10;487839.00;1.63;840.89;0.00;0.00;0.62;;;;;21.40;1.00;;;;;;2276568;61;1700;-86
2022/10/13 10:21:49;934470.00;3.11;1616.74;192995.00;0.64;333.86;;;;;21.30;1.00;;;;;;2276763;61;1648;-86
2022/10/13 10:24:26;183052.00;0.61;316.75;0.00;0.00;0.62;;;;;21.40;1.00;;;;;;2276834;61;1322;-88
2022/10/13 10:26:57;359711.00;1.20;620.55;47975.00;0.16;83.68;;;;;21.50;1.00;;;;;;2276841;61;981;-89
2022/10/13 10:29:43;149055.00;0.50;258.18;0.00;0.00;0.62;;;;;21.50;1.00;;;;;;2276825;61;965;-88
2022/10/13 10:32:27;252703.00;0.84;436.60;0.00;0.00;0.62;;;;;21.40;1.00;;;;;;2276866;61;1690;-88
2022/10/13 10:35:02;256634.00;0.86;443.36;0.00;0.00;0.62;;;;;21.50;1.00;;;;;;2276914;61;1431;-87
2022/10/13 10:37:57;587291.00;1.96;1012.28;0.00;0.00;0.62;;;;;21.60;1.00;;;;;;2276825;61;1647;-85
2022/10/13 10:40:36;335783.00;1.12;579.43;0.00;0.00;0.62;;;;;21.80;1.00;;;;;;2276829;61;1390;-87
2022/10/13 10:43:34;120968.00;0.40;209.75;0.00;0.00;0.62;;;;;21.70;1.00;;;;;;2276698;61;1907;-88
2022/10/13 10:46:01;315818.00;1.05;545.11;0.00;0.00;0.62;;;;;21.60;1.00;;;;;;2276859;61;1062;-88
2022/10/13 10:48:34;333462.00;1.11;575.44;3835.00;0.01;7.27;;;;;21.50;1.00;;;;;;2276721;61;2176;-87
2022/10/13 10:51:07;422087.00;1.41;727.78;65232.00;0.22;113.52;;;;;21.30;1.00;;;;;;2276840;61;1095;-89
2022/10/13 10:53:42;340507.00;1.14;587.55;30036.00;0.10;52.65;;;;;21.10;1.00;;;;;;2276787;61;1702;-88
2022/10/13 10:56:19;464947.00;1.55;801.50;0.00;0.00;0.62;;;;;20.90;1.00;;;;;;2276800;61;1012;-88
2022/10/13 10:58:56;468647.00;1.56;807.86;25325.00;0.08;44.49;;;;;21.00;1.00;;;;;;2276778;61;1115;-88
2022/10/13 11:01:33;325857.00;1.09;562.37;0.00;0.00;0.62;;;;;21.20;1.00;;;;;;2276843;61;903;-87
2022/10/13 11:04:28;178294.00;0.59;308.55;0.00;0.00;0.62;;;;;21.30;1.00;;;;;;2276694;61;1927;-86
2022/10/13 11:06:58;265929.00;0.89;459.34;0.00;0.00;0.62;;;;;21.40;1.00;;;;;;2276676;61;940;-88
2022/10/13 11:09:58;594219.00;1.98;1024.24;163506.00;0.55;283.08;;;;;21.40;1.00;;;;;;2276629;61;1557;-88
2022/10/13 11:12:47;636555.00;2.12;1097.38;91258.00;0.30;158.48;;;;;21.80;1.00;;;;;;2276648;61;1973;-88
2022/10/13 11:15:22;465260.00;1.55;802.03;0.00;0.00;0.62;;;;;21.90;1.00;;;;;;2276651;61;1548;-86
2022/10/13 11:17:49;676471.00;2.25;1166.46;52958.00;0.18;92.30;;;;;21.90;1.00;;;;;;2276751;61;1159;-87
2022/10/13 11:20:57;347883.00;1.16;600.22;56656.00;0.19;98.70;;;;;21.90;1.00;;;;;;2276707;61;1021;-88
2022/10/13 11:23:33;278587.00;0.93;481.11;70972.00;0.24;123.44;;;;;22.00;1.00;;;;;;2276815;61;1970;-89
2022/10/13 11:26:29;327791.00;1.09;565.69;148.00;0.00;0.88;;;;;22.00;1.00;;;;;;2276581;61;1603;-86
2022/10/13 11:28:57;379760.00;1.27;655.01;30178.00;0.10;52.89;;;;;22.10;1.00;;;;;;2276525;61;1544;-87
2022/10/13 11:31:32;453753.00;1.51;782.24;49346.00;0.16;86.06;;;;;22.10;1.00;;;;;;2276488;61;1562;-88
2022/10/13 11:34:01;396661.00;1.32;684.07;35861.00;0.12;62.73;;;;;21.90;1.00;;;;;;2276546;61;2160;-87
2022/10/13 11:36:51;523767.00;1.75;902.75;37279.00;0.12;65.18;;;;;21.50;1.00;;;;;;2276588;61;1134;-88
2022/10/13 11:40:09;370999.00;1.24;639.95;0.00;0.00;0.62;;;;;21.70;1.00;;;;;;2275420;61;1488;-88
2022/10/13 11:43:24;318418.00;1.06;549.58;0.00;0.00;0.62;;;;;21.60;1.00;;;;;;2263890;61;1919;-87
2022/10/13 11:46:04;312899.00;1.04;540.09;0.00;0.00;0.62;;;;;22.10;1.00;;;;;;2264062;61;1482;-88
2022/10/13 11:48:54;503631.00;1.68;868.08;28241.00;0.09;49.54;;;;;22.10;1.00;;;;;;2263977;61;1605;-88
2022/10/13 11:51:36;358396.00;1.19;618.29;20449.00;0.07;36.05;;;;;22.20;1.00;;;;;;2263971;61;1075;-88
2022/10/13 11:54:17;336196.00;1.12;580.14;9931.00;0.03;17.83;;;;;22.10;1.00;;;;;;2263962;61;1446;-87
2022/10/13 11:56:47;236876.00;0.79;409.38;0.00;0.00;0.62;;;;;22.40;1.00;;;;;;2292821;40;3837;-86